• Join FlightAware (Why Join?)
  • Login
  • US Flag 
05:24PM EDT


 

Airport Tracker/Info


-or-


 

Live Flight TrackerFlight Track Log ✈ LXJ342 ✈ 01-Jul-2013 ✈ KLAS - KPIA

Flight Track Log - Related Links

Times and Time Zones

All times are in EDT time to prevent confusion due to time zone crossing. See the LXJ342 flight status page for this flight to view local times or setup timezone preferences in your user account.

Time Position Orientation Groundspeed Altitude Reporting Facility
EDT Latitude Longitude Course Direction KTS MPH feet Rate Location/Type
10:52AM 36.0781 -115.1169 92° East 204 235 3,100  Level Los Angeles Center
10:53AM 36.0750 -115.0142 92° East 258 297 6,700 2,880 Climbing Los Angeles Center
10:54AM 36.0794 -114.9211 87° East 268 308 9,800 2,880 Climbing Los Angeles Center
10:55AM 36.0981 -114.8203 77° East 294 338 12,800 2,940 Climbing Los Angeles Center
10:56AM 36.1167 -114.6997 79° East 298 343 16,500 3,000 Climbing Los Angeles Center
10:58AM 36.1375 -114.5814 78° East 296 341 20,300 2,700 Climbing Los Angeles Center
10:59AM 36.1564 -114.4581 79° East 302 348 22,700 1,860 Climbing Los Angeles Center
11:00AM 36.1761 -114.3419 78° East 333 383 24,200 1,500 Climbing Los Angeles Center
11:01AM 36.1961 -114.2167 79° East 362 417 25,900 1,800 Climbing Los Angeles Center
11:03AM 36.2606 -113.9419 74° East 378 435 29,900 1,620 Climbing Los Angeles Center
11:04AM 36.2917 -113.8136 73° East 385 443 31,000 960 Climbing Los Angeles Center
11:05AM 36.3244 -113.6786 73° East 402 463 32,000 960 Climbing Los Angeles Center
11:06AM 36.3575 -113.5400 73° East 415 478 33,100 1,200 Climbing Los Angeles Center
11:07AM 36.3903 -113.4014 74° East 419 482 34,600 1,440 Climbing Los Angeles Center
11:08AM 36.4219 -113.2656 74° East 412 474 36,100 1,260 Climbing Los Angeles Center
11:09AM 36.4592 -113.1044 74° East 405 466 37,300 780 Climbing Los Angeles Center
11:10AM 36.4908 -112.9700 74° East 405 466 37,800 480 Climbing Los Angeles Center
11:11AM 36.5219 -112.8311 74° East 413 475 38,300 720 Climbing Los Angeles Center
11:12AM 36.5539 -112.6908 74° East 420 483 39,300 900 Climbing Los Angeles Center
11:13AM 36.5844 -112.5556 74° East 415 478 40,200 540 Climbing Los Angeles Center
11:15AM 36.6508 -112.2658 74° East 404 465 41,000 240 Climbing Los Angeles Center
11:16AM 36.6811 -112.1264 75° East 416 479 41,000  Level Los Angeles Center
11:17AM 36.7133 -111.9856 74° East 424 488 41,000  Level Los Angeles Center
11:18AM 36.7436 -111.8436 75° East 427 491 41,000  Level Los Angeles Center
11:20AM 36.8092 -111.5303 75° East 423 487 41,000  Level Los Angeles Center
11:21AM 36.8433 -111.3983 72° East 413 475 41,000  Level Los Angeles Center
11:22AM 36.8833 -111.2672 69° East 410 472 41,000  Level Los Angeles Center
11:23AM 36.8908 -111.1261 86° East 420 483 41,000  Level Los Angeles Center
11:25AM 36.9261 -110.9600 75° East 420 483 41,000  Level Denver Center
11:27AM 37.0022 -110.6661 72° East 435 501 41,000  Level Denver Center
11:28AM 36.9900 -110.5211 96° East 421 484 41,000  Level Denver Center
11:29AM 37.0211 -110.3850 74° East 409 471 41,000  Level Denver Center
11:30AM 37.0781 -110.2575 61° Northeast 419 482 41,000  Level Denver Center
11:31AM 37.1136 -110.0897 75° East 425 489 41,000  Level Denver Center
11:32AM 37.1425 -109.9486 76° East 434 499 41,000  Level Denver Center
11:33AM 37.1753 -109.7822 76° East 437 503 41,000  Level Denver Center
11:34AM 37.2042 -109.6389 76° East 441 507 41,000  Level Denver Center
11:35AM 37.2322 -109.4953 76° East 441 507 41,000  Level Denver Center
11:36AM 37.2647 -109.3308 76° East 435 501 41,000  Level Denver Center
11:37AM 37.2928 -109.1894 76° East 434 499 41,000  Level Denver Center
11:38AM 37.3242 -109.0261 76° East 431 496 41,000  Level Denver Center
11:39AM 37.3519 -108.8856 76° East 431 496 41,000  Level Denver Center
11:40AM 37.3828 -108.7200 77° East 434 499 41,000  Level Denver Center
11:41AM 37.4089 -108.5769 77° East 436 502 41,000  Level Denver Center
11:42AM 37.4406 -108.4100 77° East 438 504 41,000  Level Denver Center
11:43AM 37.4669 -108.2669 77° East 438 504 41,000  Level Denver Center
11:44AM 37.4983 -108.1003 77° East 438 504 41,000  Level Denver Center
11:45AM 37.5247 -107.9556 77° East 439 505 41,000  Level Denver Center
11:46AM 37.5503 -107.8117 77° East 441 507 41,000  Level Denver Center
11:48AM 37.5808 -107.6433 77° East 440 506 41,000  Level Denver Center
11:49AM 37.6069 -107.5017 77° East 435 501 41,000  Level Denver Center
11:50AM 37.6367 -107.3342 77° East 437 503 41,000  Level Denver Center
11:51AM 37.6617 -107.1914 77° East 435 501 41,000  Level Denver Center
11:52AM 37.6908 -107.0250 77° East 435 501 41,000  Level Denver Center
11:53AM 37.7150 -106.8825 78° East 434 499 41,000  Level Denver Center
11:54AM 37.7453 -106.7142 77° East 438 504 41,000  Level Denver Center
11:55AM 37.7692 -106.5700 78° East 438 504 41,000  Level Denver Center
11:56AM 37.7967 -106.3994 78° East 443 510 41,000  Level Denver Center
11:57AM 37.8236 -106.2475 77° East 443 510 41,000  Level Denver Center
11:59AM 37.8747 -105.9336 78° East 438 504 41,000  Level Denver Center
12:01PM 37.9250 -105.6256 78° East 430 495 41,000  Level Denver Center
12:02PM 37.9461 -105.4836 79° East 431 496 41,000  Level Denver Center
12:03PM 37.9731 -105.3167 78° East 432 497 41,000  Level Denver Center
12:04PM 37.9964 -105.1739 78° East 433 498 41,000  Level Denver Center
12:05PM 38.0194 -105.0300 78° East 433 498 41,000  Level Denver Center
12:06PM 38.0461 -104.8622 79° East 435 501 41,000  Level Denver Center
12:07PM 38.0678 -104.7181 79° East 435 501 41,000  Level Denver Center
12:08PM 38.0933 -104.5481 79° East 437 503 41,000  Level Denver Center
12:09PM 38.1161 -104.4019 79° East 438 504 41,000  Level Denver Center
12:10PM 38.1408 -104.2311 80° East 437 503 41,000  Level Denver Center
12:11PM 38.1633 -104.0842 79° East 439 505 41,000  Level Denver Center
12:12PM 38.1881 -103.9131 78° East 439 505 41,000  Level Denver Center
12:13PM 38.2067 -103.7165 78° East  Level FlightAware Approximate
12:13PM 38.2094 -103.7647 80° East 442 509 41,000  Level Denver Center
12:16PM 38.2572 -103.4331 80° East 444 511 41,000  Level Kansas City Center
12:17PM 38.2814 -103.2611 80° East 443 510 41,000  Level Kansas City Center
12:17PM 38.2989 -103.1261 81° East 440 506 41,000  Level Denver Center
12:20PM 38.3417 -102.8233 80° East 438 504 41,000  Level Denver Center
12:21PM 38.3644 -102.6528 80° East 438 504 41,000  Level Denver Center
12:23PM 38.4050 -102.3369 81° East 437 503 41,000  Level Denver Center
12:24PM 38.4244 -102.1917 80° East 435 501 41,000  Level Denver Center
12:25PM 38.4467 -102.0217 80° East 437 503 41,000  Level Denver Center
12:26PM 38.4650 -101.8767 81° East 434 499 41,000  Level Denver Center
12:27PM 38.4839 -101.7300 81° East 435 501 41,000  Level Denver Center
12:28PM 38.5047 -101.5594 81° East 434 499 41,000  Level Denver Center
12:30PM 38.5469 -101.2156 81° East 433 498 41,000  Level Kansas City Center
12:31PM 38.5617 -101.0939 81° East 441 507 41,000  Level Denver Center
12:32PM 38.5817 -100.9200 82° East 443 510 41,000  Level Denver Center
12:33PM 38.5994 -100.7711 81° East 443 510 41,000  Level Denver Center
12:34PM 38.6200 -100.5967 81° East 444 511 41,000  Level Denver Center
12:35PM 38.6364 -100.4478 82° East 442 509 41,000  Level Denver Center
12:36PM 38.6564 -100.2731 82° East 443 510 41,000  Level Denver Center
12:37PM 38.6750 -100.0989 82° East 440 506 41,000  Level Kansas City Center
12:38PM 38.6908 -99.9514 82° East 438 504 41,000  Level Kansas City Center
12:39PM 38.7111 -99.7792 81° East 438 504 41,000  Level Kansas City Center
12:40PM 38.7264 -99.6306 82° East 439 505 41,000  Level Kansas City Center
12:42PM 38.7589 -99.3336 82° East 442 509 41,000  Level Denver Center
12:43PM 38.7767 -99.1572 83° East 446 513 41,000  Level Denver Center
12:44PM 38.7928 -99.0069 82° East 446 513 41,000  Level Denver Center
12:46PM 38.8106 -98.8297 83° East 447 514 41,000  Level Kansas City Center
12:47PM 38.8261 -98.6717 83° East 445 512 41,000  Level Kansas City Center
12:48PM 38.8439 -98.4814 83° East 446 513 41,000  Level Kansas City Center
12:49PM 38.8594 -98.3236 83° East 445 512 41,000  Level Kansas City Center
12:50PM 38.8744 -98.1647 83° East 447 514 41,000  Level Kansas City Center
12:51PM 38.8900 -98.0056 83° East 448 516 41,000  Level Kansas City Center
12:52PM 38.9050 -97.8436 83° East 452 520 41,000  Level Kansas City Center
12:53PM 38.9214 -97.6656 83° East 452 520 41,000  Level Kansas City Center
12:54PM 38.9522 -97.5206 75° East 445 512 41,000  Level Kansas City Center
12:56PM 39.0339 -97.2117 71° East 440 506 41,000  Level Kansas City Center
12:57PM 39.0772 -97.0453 71° East 440 506 41,000  Level Kansas City Center
12:58PM 39.1144 -96.9008 72° East 442 509 41,000  Level Kansas City Center
12:59PM 39.1589 -96.7342 71° East 441 507 41,000  Level Kansas City Center
01:00PM 39.1956 -96.5886 72° East 444 511 41,000  Level Kansas City Center
01:01PM 39.2311 -96.4456 72° East 440 506 41,000  Level Kansas City Center
01:02PM 39.2753 -96.2733 72° East 438 504 41,000  Level Kansas City Center
01:03PM 39.3094 -96.1350 72° East 439 505 41,000  Level Kansas City Center
01:04PM 39.3517 -95.9672 72° East 439 505 41,000  Level Kansas City Center
01:05PM 39.3881 -95.8219 72° East 441 507 41,000  Level Kansas City Center
01:06PM 39.4297 -95.6514 72° East 444 511 41,000  Level Kansas City Center
01:07PM 39.4658 -95.5039 72° East 445 512 41,000  Level Kansas City Center
01:08PM 39.5072 -95.3347 72° East 447 514 41,000  Level Kansas City Center
01:09PM 39.5433 -95.1822 73° East 447 514 41,000  Level Kansas City Center
01:10PM 39.5781 -95.0339 73° East 446 513 41,000  Level Kansas City Center
01:11PM 39.6197 -94.8608 73° East 447 514 41,000  Level Kansas City Center
01:12PM 39.6544 -94.7125 73° East 447 514 41,000  Level Kansas City Center
01:13PM 39.6942 -94.5411 73° East 444 511 41,000  Level Kansas City Center
01:15PM 39.7228 -94.3893 76° East  Level FlightAware Approximate
01:16PM 39.7672 -94.2239 76° East 440 506 41,000  Level Kansas City Center
01:17PM 39.8011 -94.0775 73° East 442 509 41,000  Level Kansas City Center
01:18PM 39.8308 -93.9353 75° East 446 513 41,000  Level Kansas City Center
01:19PM 39.8728 -93.7533 73° East 442 509 41,000  Level Kansas City Center
01:21PM 39.9422 -93.4478 73° East 446 513 41,000  Level Kansas City Center
01:22PM 39.9753 -93.2925 74° East 450 518 41,000 -480 Level Kansas City Center
01:23PM 40.0092 -93.1361 74° East 452 520 40,100 -1,020 Descending Kansas City Center
01:24PM 40.0483 -92.9503 75° East 449 517 38,900 -1,140 Descending Kansas City Center
01:25PM 40.0825 -92.7908 74° East 438 504 37,800 -1,020 Descending Kansas City Center
01:27PM 40.1478 -92.4797 75° East 425 489 35,800 -1,020 Descending Kansas City Center
01:28PM 40.1808 -92.3303 74° East 429 494 34,700 -960 Descending Kansas City Center
01:30PM 40.2425 -92.0328 75° East 430 495 33,000 -600 Descending Kansas City Center
01:31PM 40.2731 -91.8819 75° East 432 497 32,900 -1,140 Descending Kansas City Center
01:32PM 40.3114 -91.6928 75° East 448 516 30,700 -2,040 Descending Kansas City Center
01:33PM 40.3422 -91.5422 75° East 438 504 28,800 -1,860 Descending Kansas City Center
01:34PM 40.3714 -91.3942 75° East 427 491 26,900 -1,920 Descending Kansas City Center
01:35PM 40.4036 -91.2372 75° East 414 476 24,900 -1,920 Descending Kansas City Center
01:36PM 40.4317 -91.1003 75° East 392 451 22,900 -1,860 Descending Chicago Center
01:37PM 40.4575 -90.9656 76° East 384 442 21,000 -1,860 Descending Chicago Center
01:38PM 40.4825 -90.8383 75° East 365 420 19,100 -2,040 Descending Chicago Center
01:39PM 40.4997 -90.6864 81° East 352 405 16,900 -2,160 Descending Chicago Center
01:40PM 40.5108 -90.5653 83° East 338 389 14,700 -2,160 Descending Chicago Center
01:41PM 40.5219 -90.4503 83° East 321 369 12,500 -2,220 Descending Chicago Center
01:42PM 40.5344 -90.3381 82° East 313 360 10,200 -2,400 Descending Chicago Center
01:45PM 40.5569 -90.1333 82° East 280 322 5,100 -2,460 Descending Chicago Center
01:46PM 40.5694 -90.0219 82° East 268 308 2,700 -1,320 Descending Chicago Center
01:47PM 40.5781 -89.9344 83° East 255 293 2,400 -240 Descending Chicago Center
01:48PM 40.5867 -89.8517 82° East 242 278 2,300 -240 Descending Chicago Center
01:49PM 40.5925 -89.7800 84° East 213 245 2,000 -480 Descending Chicago Center
01:50PM 40.6236 -89.7236 54° Northeast 174 200 1,400 -660 Descending Chicago Center
01:51PM 40.6525 -89.6939 38° Northeast 147 169 700 -360 Descending Chicago Center
01:52PM 40.6789 -89.6667 38° Northeast 143 165 700  Level Chicago Center
01:54PM 40.6500 -89.6833 217° Southwest  Level FlightAware Approximate